createdAt,value
2023-04-02T00:03:05.090Z,8.23
2023-04-02T00:08:20.391Z,8.10
2023-04-02T00:13:29.478Z,8.07
2023-04-02T00:18:32.939Z,7.99
2023-04-02T00:23:41.165Z,7.89
2023-04-02T00:28:42.587Z,8.03
2023-04-02T00:33:44.172Z,7.92
2023-04-02T00:38:48.714Z,7.83
2023-04-02T00:43:51.904Z,7.85
2023-04-02T00:49:14.477Z,7.85
2023-04-02T00:54:21.534Z,7.66
2023-04-02T00:59:30.190Z,7.55
2023-04-02T01:04:36.414Z,7.66
2023-04-02T01:10:13.154Z,7.36
2023-04-02T01:15:21.778Z,7.52
2023-04-02T01:20:47.906Z,7.42
2023-04-02T01:26:17.311Z,7.47
2023-04-02T01:31:19.114Z,7.24
2023-04-02T01:36:58.588Z,7.07
2023-04-02T01:42:15.856Z,7.03
2023-04-02T01:47:28.929Z,6.95
2023-04-02T01:52:43.286Z,6.84
2023-04-02T01:57:49.743Z,6.64
2023-04-02T02:02:52.001Z,6.66
2023-04-02T02:07:55.845Z,6.73
2023-04-02T02:12:59.292Z,6.87
2023-04-02T02:18:04.567Z,6.90
2023-04-02T02:23:07.137Z,6.89
2023-04-02T02:28:17.074Z,6.85
2023-04-02T02:33:46.026Z,6.87
2023-04-02T02:39:10.772Z,6.88
2023-04-02T02:44:20.934Z,6.65
2023-04-02T02:49:28.418Z,6.58
2023-04-02T02:54:32.258Z,6.59
2023-04-02T02:59:34.287Z,6.58
2023-04-02T03:04:36.334Z,6.49
2023-04-02T03:10:09.693Z,6.61
2023-04-02T03:15:20.368Z,6.58
2023-04-02T03:20:32.973Z,6.57
2023-04-02T03:25:48.257Z,6.43
2023-04-02T03:30:56.559Z,6.39
2023-04-02T03:36:02.860Z,6.08
2023-04-02T03:41:27.129Z,5.86
2023-04-02T03:46:38.073Z,5.96
2023-04-02T03:51:55.405Z,5.80
2023-04-02T03:56:57.689Z,5.78
2023-04-02T04:02:09.128Z,5.84
2023-04-02T04:07:21.088Z,5.87
2023-04-02T04:12:39.768Z,5.77
2023-04-02T04:18:04.652Z,5.79
2023-04-02T04:23:33.824Z,5.81
2023-04-02T04:29:05.538Z,5.80
2023-04-02T04:34:38.880Z,5.92
2023-04-02T04:39:45.790Z,5.97
2023-04-02T04:45:23.633Z,5.93
2023-04-02T04:50:37.038Z,6.05
2023-04-02T04:55:45.657Z,6.01
2023-04-02T05:01:24.129Z,6.02
2023-04-02T05:06:41.840Z,5.98
2023-04-02T05:12:00.440Z,5.86
2023-04-02T05:17:19.557Z,5.83
2023-04-02T05:22:50.946Z,5.67
2023-04-02T05:28:03.741Z,5.77
2023-04-02T05:33:23.519Z,5.84
2023-04-02T05:38:31.763Z,5.60
2023-04-02T05:43:35.452Z,5.72
2023-04-02T05:48:40.996Z,5.91
2023-04-02T05:54:05.016Z,5.80
2023-04-02T05:59:16.212Z,5.76
2023-04-02T06:04:29.844Z,5.89
2023-04-02T06:09:57.205Z,5.89
2023-04-02T06:14:58.973Z,6.04
2023-04-02T06:20:04.233Z,5.87
2023-04-02T06:25:22.166Z,5.83
2023-04-02T06:30:30.168Z,5.68
2023-04-02T06:35:34.624Z,5.77
2023-04-02T06:40:59.036Z,5.84
2023-04-02T06:46:23.871Z,5.81
2023-04-02T06:51:26.685Z,5.88
2023-04-02T06:56:46.780Z,5.89
2023-04-02T07:01:54.640Z,5.57
2023-04-02T07:06:56.543Z,5.70
2023-04-02T07:11:57.960Z,5.94
2023-04-02T07:16:59.403Z,5.89
2023-04-02T07:22:01.083Z,5.61
2023-04-02T07:27:02.543Z,5.80
2023-04-02T07:32:03.988Z,5.77
2023-04-02T07:37:05.906Z,5.84
2023-04-02T07:42:07.979Z,5.73
2023-04-02T07:47:10.595Z,5.88
2023-04-02T07:52:12.117Z,5.65
2023-04-02T07:57:13.735Z,5.68
2023-04-02T08:02:21.116Z,6.05
2023-04-02T08:07:22.598Z,5.90
2023-04-02T08:12:24.046Z,6.12
2023-04-02T08:17:26.633Z,6.11
2023-04-02T08:22:29.081Z,6.16
2023-04-02T08:27:30.942Z,6.12
2023-04-02T08:32:32.435Z,6.15
2023-04-02T08:37:33.947Z,6.19
2023-04-02T08:42:48.187Z,6.45
2023-04-02T08:47:53.370Z,6.22
2023-04-02T08:52:55.079Z,6.32
2023-04-02T08:58:10.665Z,6.38
2023-04-02T09:03:21.676Z,6.21
2023-04-02T09:08:27.536Z,6.40
2023-04-02T09:13:31.291Z,6.38
2023-04-02T09:18:33.244Z,6.21
2023-04-02T09:23:34.709Z,6.33
2023-04-02T09:28:36.318Z,6.55
2023-04-02T09:33:51.569Z,6.39
2023-04-02T09:38:59.151Z,6.40
2023-04-02T09:44:23.781Z,6.44
2023-04-02T09:49:28.592Z,6.29
2023-04-02T09:54:30.004Z,6.47
2023-04-02T09:59:31.530Z,6.26
2023-04-02T10:04:48.260Z,6.03
2023-04-02T10:09:58.741Z,6.17
2023-04-02T10:15:03.267Z,6.33
2023-04-02T10:20:26.348Z,6.57
2023-04-02T10:25:34.586Z,6.75
2023-04-02T10:30:51.738Z,6.57
2023-04-02T10:36:19.724Z,6.55
2023-04-02T10:42:04.812Z,6.87
2023-04-02T10:47:12.804Z,6.78
2023-04-02T10:52:21.617Z,6.75
2023-04-02T10:57:38.009Z,6.84
2023-04-02T11:02:58.330Z,6.60
2023-04-02T11:08:16.620Z,6.47
2023-04-02T11:13:28.800Z,6.62
2023-04-02T11:18:38.844Z,6.51
2023-04-02T11:23:56.964Z,6.73
2023-04-02T11:29:29.492Z,6.65
2023-04-02T11:34:56.354Z,6.46
2023-04-02T11:40:06.054Z,6.51
2023-04-02T11:45:28.756Z,6.88
2023-04-02T11:50:35.928Z,6.83
2023-04-02T11:55:40.970Z,6.88
2023-04-02T12:01:05.651Z,6.84
2023-04-02T12:06:27.836Z,7.06
2023-04-02T12:11:35.880Z,6.87
2023-04-02T12:16:37.612Z,6.84
2023-04-02T12:21:47.515Z,6.73
2023-04-02T12:26:49.135Z,6.50
2023-04-02T12:31:51.152Z,6.69
2023-04-02T12:36:55.067Z,6.51
2023-04-02T12:41:57.221Z,6.65
2023-04-02T12:46:59.443Z,6.72
2023-04-02T12:52:07.333Z,7.11
2023-04-02T12:57:42.752Z,6.96
2023-04-02T13:02:46.549Z,6.85
2023-04-02T13:07:49.186Z,6.86
2023-04-02T13:12:56.515Z,6.69
2023-04-02T13:18:19.388Z,6.83
2023-04-02T13:23:29.816Z,6.96
2023-04-02T13:28:31.375Z,6.98
2023-04-02T13:33:32.785Z,6.89
2023-04-02T13:38:34.218Z,6.97
2023-04-02T13:43:35.670Z,7.05
2023-04-02T13:48:37.080Z,6.88
2023-04-02T13:53:38.892Z,6.87
2023-04-02T13:58:40.374Z,7.05
2023-04-02T14:03:42.144Z,7.12
2023-04-02T14:08:53.290Z,7.07
2023-04-02T14:14:19.781Z,7.19
2023-04-02T14:19:31.641Z,7.28
2023-04-02T14:24:50.280Z,7.09
2023-04-02T14:29:57.657Z,7.36
2023-04-02T14:35:26.873Z,7.32
2023-04-02T14:40:37.825Z,7.07
2023-04-02T14:45:58.432Z,6.91
2023-04-02T14:51:05.031Z,6.96
2023-04-02T14:56:10.005Z,6.88
2023-04-02T15:01:21.899Z,6.95
2023-04-02T15:06:31.198Z,6.56
2023-04-02T15:11:38.327Z,6.80
2023-04-02T15:16:39.899Z,7.01
2023-04-02T15:21:55.879Z,6.90
2023-04-02T15:27:27.734Z,7.02
2023-04-02T15:32:35.548Z,7.20
2023-04-02T15:37:54.116Z,7.12
2023-04-02T15:43:23.578Z,7.04
2023-04-02T15:48:36.824Z,6.92
2023-04-02T15:53:57.752Z,7.06
2023-04-02T15:59:30.636Z,6.99
2023-04-02T16:04:38.464Z,6.94
2023-04-02T16:10:08.538Z,6.95
2023-04-02T16:15:40.535Z,6.88
2023-04-02T16:20:46.095Z,7.00
2023-04-02T16:26:16.943Z,6.85
2023-04-02T16:31:28.175Z,7.07
2023-04-02T16:36:43.381Z,7.08
2023-04-02T16:42:15.583Z,7.05
2023-04-02T16:47:29.764Z,7.10
2023-04-02T16:53:09.760Z,7.08
2023-04-02T16:58:30.062Z,6.84
2023-04-02T17:03:59.787Z,6.71
2023-04-02T17:09:33.216Z,6.86
2023-04-02T17:14:43.140Z,6.76
2023-04-02T17:19:44.984Z,6.85
2023-04-02T17:24:58.148Z,6.60
2023-04-02T17:30:41.505Z,6.67
2023-04-02T17:35:57.418Z,6.75
2023-04-02T17:41:08.094Z,6.74
2023-04-02T17:46:22.305Z,6.72
2023-04-02T17:51:38.467Z,6.73
2023-04-02T17:57:14.973Z,6.77
2023-04-02T18:02:28.473Z,6.62
2023-04-02T18:08:02.516Z,6.64
2023-04-02T18:13:17.283Z,6.68
2023-04-02T18:19:03.321Z,6.66
2023-04-02T18:24:35.849Z,6.63
2023-04-02T18:29:48.846Z,6.58
2023-04-02T18:35:08.807Z,6.56
2023-04-02T18:40:36.893Z,6.71
2023-04-02T18:46:05.786Z,6.73
2023-04-02T18:51:16.012Z,6.83
2023-04-02T18:56:21.935Z,6.76
2023-04-02T19:01:39.046Z,6.45
2023-04-02T19:06:48.292Z,6.45
2023-04-02T19:11:52.884Z,6.43
2023-04-02T19:17:12.473Z,6.58
2023-04-02T19:22:29.550Z,6.61
2023-04-02T19:27:33.976Z,6.66
2023-04-02T19:32:46.220Z,6.52
2023-04-02T19:38:26.739Z,6.60
2023-04-02T19:43:29.510Z,6.56
2023-04-02T19:48:57.783Z,6.64
2023-04-02T19:53:59.837Z,6.72
2023-04-02T19:59:07.646Z,6.60
2023-04-02T20:04:13.390Z,6.50
2023-04-02T20:09:14.863Z,6.42
2023-04-02T20:14:16.387Z,6.38
2023-04-02T20:19:17.829Z,6.43
2023-04-02T20:24:19.285Z,6.30
2023-04-02T20:29:22.894Z,6.15
2023-04-02T20:34:24.789Z,6.46
2023-04-02T20:39:26.371Z,6.31
2023-04-02T20:44:28.484Z,6.10
2023-04-02T20:49:29.933Z,6.11
2023-04-02T20:54:31.601Z,6.14
2023-04-02T20:59:33.078Z,6.00
2023-04-02T21:04:34.518Z,6.03
2023-04-02T21:09:36.125Z,6.06
2023-04-02T21:14:39.083Z,5.95
2023-04-02T21:19:40.733Z,5.97
2023-04-02T21:24:42.159Z,5.82
2023-04-02T21:29:43.695Z,5.70
2023-04-02T21:34:45.299Z,5.71
2023-04-02T21:39:46.724Z,5.86
2023-04-02T21:44:48.172Z,5.61
2023-04-02T21:49:49.652Z,5.76
2023-04-02T21:54:51.112Z,5.63
2023-04-02T21:59:56.770Z,5.39
2023-04-02T22:04:58.216Z,5.49
2023-04-02T22:09:59.621Z,5.37
2023-04-02T22:15:01.084Z,5.41
2023-04-02T22:20:02.529Z,5.39
2023-04-02T22:25:04.294Z,5.30
2023-04-02T22:30:06.739Z,5.34
2023-04-02T22:35:08.559Z,5.12
2023-04-02T22:40:10.487Z,5.08
2023-04-02T22:45:12.493Z,5.12
2023-04-02T22:50:15.345Z,5.09
2023-04-02T22:55:16.996Z,5.07
2023-04-02T23:00:18.786Z,4.75
2023-04-02T23:05:20.891Z,4.72
2023-04-02T23:10:22.401Z,4.77
2023-04-02T23:15:24.105Z,4.70
2023-04-02T23:20:25.567Z,4.52
2023-04-02T23:25:26.997Z,4.47
2023-04-02T23:30:28.452Z,4.16
2023-04-02T23:35:30.213Z,3.97
2023-04-02T23:40:31.648Z,3.92
2023-04-02T23:45:33.077Z,3.97
2023-04-02T23:50:34.761Z,3.94
2023-04-02T23:55:36.502Z,3.84
